createdAt,value
2018-07-23T00:00:11.481Z,18.20
2018-07-23T00:02:39.785Z,17.10
2018-07-23T00:05:08.041Z,18.23
2018-07-23T00:07:36.488Z,19.00
2018-07-23T00:10:04.785Z,19.73
2018-07-23T00:12:33.154Z,19.07
2018-07-23T00:15:01.480Z,19.07
2018-07-23T00:17:29.714Z,18.57
2018-07-23T00:19:58.038Z,18.67
2018-07-23T00:22:26.342Z,19.87
2018-07-23T00:24:55.435Z,19.80
2018-07-23T00:27:23.778Z,18.87
2018-07-23T00:29:52.029Z,19.97
2018-07-23T00:32:20.261Z,19.63
2018-07-23T00:34:48.570Z,19.70
2018-07-23T00:37:16.877Z,20.73
2018-07-23T00:39:45.113Z,19.37
2018-07-23T00:42:13.349Z,19.20
2018-07-23T00:44:41.664Z,18.67
2018-07-23T00:47:10.096Z,20.80
2018-07-23T00:49:38.377Z,20.67
2018-07-23T00:52:07.805Z,19.90
2018-07-23T00:54:36.002Z,20.43
2018-07-23T00:57:04.258Z,20.10
2018-07-23T00:59:32.693Z,20.53
2018-07-23T01:02:01.036Z,19.63
2018-07-23T01:04:29.278Z,19.43
2018-07-23T01:06:57.583Z,17.77
2018-07-23T01:09:25.906Z,18.47
2018-07-23T01:11:54.138Z,19.50
2018-07-23T01:14:22.358Z,18.43
2018-07-23T01:16:50.751Z,18.47
2018-07-23T01:19:19.018Z,17.17
2018-07-23T01:21:47.451Z,18.03
2018-07-23T01:24:15.738Z,17.80
2018-07-23T01:26:43.958Z,17.93
2018-07-23T01:29:12.167Z,18.13
2018-07-23T01:31:41.070Z,18.37
2018-07-23T01:34:09.336Z,18.57
2018-07-23T01:36:37.691Z,18.07
2018-07-23T01:39:07.806Z,17.13
2018-07-23T01:41:36.077Z,17.27
2018-07-23T01:44:04.299Z,19.13
2018-07-23T01:46:32.722Z,18.73
2018-07-23T01:49:01.690Z,17.87
2018-07-23T01:51:29.962Z,18.63
2018-07-23T01:53:58.178Z,18.03
2018-07-23T01:56:26.414Z,18.23
2018-07-23T01:58:55.642Z,19.30
2018-07-23T02:01:24.665Z,17.57
2018-07-23T02:03:52.888Z,17.93
2018-07-23T02:06:21.114Z,18.13
2018-07-23T02:08:49.372Z,16.23
2018-07-23T02:11:17.846Z,17.93
2018-07-23T02:13:46.140Z,16.93
2018-07-23T02:16:14.330Z,17.87
2018-07-23T02:18:42.587Z,18.47
2018-07-23T02:21:11.170Z,17.93
2018-07-23T02:23:39.440Z,17.03
2018-07-23T02:26:07.670Z,17.60
2018-07-23T02:28:35.910Z,16.90
2018-07-23T02:31:04.151Z,18.27
2018-07-23T02:33:32.501Z,18.43
2018-07-23T02:36:00.780Z,18.20
2018-07-23T02:38:29.032Z,18.13
2018-07-23T02:40:57.230Z,17.00
2018-07-23T02:43:25.655Z,17.63
2018-07-23T02:45:53.853Z,16.83
2018-07-23T02:48:22.050Z,17.73
2018-07-23T02:50:50.309Z,17.33
2018-07-23T02:53:18.505Z,17.47
2018-07-23T02:55:46.760Z,17.73
2018-07-23T02:58:14.962Z,16.63
2018-07-23T03:00:43.175Z,16.80
2018-07-23T03:03:11.397Z,18.60
2018-07-23T03:05:40.496Z,18.23
2018-07-23T03:08:09.278Z,19.20
2018-07-23T03:10:37.489Z,18.40
2018-07-23T03:13:05.686Z,20.13
2018-07-23T03:15:33.921Z,19.50
2018-07-23T03:18:02.906Z,18.83
2018-07-23T03:20:30.884Z,18.80
2018-07-23T03:22:59.118Z,19.40
2018-07-23T03:25:27.325Z,18.10
2018-07-23T03:27:56.070Z,18.73
2018-07-23T03:30:24.389Z,18.40
2018-07-23T03:32:52.609Z,20.53
2018-07-23T03:35:20.825Z,19.07
2018-07-23T03:37:49.081Z,20.23
2018-07-23T03:40:17.195Z,18.30
2018-07-23T03:42:45.453Z,18.83
2018-07-23T03:45:13.677Z,19.37
2018-07-23T03:47:41.996Z,18.73
2018-07-23T03:50:10.321Z,18.73
2018-07-23T03:52:38.615Z,17.97
2018-07-23T03:55:06.838Z,19.53
2018-07-23T03:57:35.046Z,19.67
2018-07-23T04:00:03.383Z,19.93
2018-07-23T04:02:31.806Z,20.00
2018-07-23T04:05:00.044Z,20.27
2018-07-23T04:07:28.371Z,19.27
2018-07-23T04:09:56.615Z,19.07
2018-07-23T04:12:24.886Z,18.77
2018-07-23T04:14:53.109Z,19.40
2018-07-23T04:17:21.359Z,19.63
2018-07-23T04:19:49.584Z,19.27
2018-07-23T04:22:17.957Z,19.73
2018-07-23T04:24:46.837Z,18.10
2018-07-23T04:27:15.086Z,18.53
2018-07-23T04:29:43.291Z,17.67
2018-07-23T04:32:11.517Z,19.63
2018-07-23T04:34:40.217Z,17.93
2018-07-23T04:37:08.846Z,18.83
2018-07-23T04:39:37.064Z,17.93
2018-07-23T04:42:05.238Z,20.03
2018-07-23T04:44:33.511Z,18.73
2018-07-23T04:47:02.387Z,17.73
2018-07-23T04:49:30.590Z,18.67
2018-07-23T04:51:58.769Z,18.07
2018-07-23T04:54:26.999Z,18.77
2018-07-23T04:56:55.223Z,18.07
2018-07-23T04:59:23.405Z,18.57
2018-07-23T05:01:51.577Z,17.47
2018-07-23T05:04:19.798Z,16.30
2018-07-23T05:06:48.074Z,17.47
2018-07-23T05:09:16.335Z,17.90
2018-07-23T05:11:44.549Z,17.50
2018-07-23T05:14:12.904Z,17.27
2018-07-23T05:16:41.586Z,16.33
2018-07-23T05:19:09.800Z,17.73
2018-07-23T05:21:38.019Z,18.27
2018-07-23T05:24:06.246Z,18.33
2018-07-23T05:26:34.476Z,19.23
2018-07-23T05:29:02.738Z,20.87
2018-07-23T05:31:30.987Z,20.13
2018-07-23T05:33:59.455Z,20.90
2018-07-23T05:36:27.638Z,22.07
2018-07-23T05:38:55.941Z,21.47
2018-07-23T05:41:24.185Z,22.33
2018-07-23T05:43:52.357Z,21.83
2018-07-23T05:46:20.949Z,22.67
2018-07-23T05:48:49.353Z,21.27
2018-07-23T05:51:17.676Z,21.80
2018-07-23T05:53:45.873Z,21.53
2018-07-23T05:56:14.162Z,21.70
2018-07-23T05:58:42.426Z,22.97
2018-07-23T06:01:10.758Z,22.97
2018-07-23T06:03:39.103Z,22.50
2018-07-23T06:06:07.293Z,23.10
2018-07-23T06:08:35.577Z,23.37
2018-07-23T06:11:03.777Z,21.17
2018-07-23T06:13:32.162Z,23.27
2018-07-23T06:16:00.329Z,22.33
2018-07-23T06:18:28.627Z,22.90
2018-07-23T06:20:56.632Z,21.37
2018-07-23T06:23:24.932Z,21.63
2018-07-23T06:25:53.270Z,21.63
2018-07-23T06:28:21.651Z,20.47
2018-07-23T06:30:49.869Z,20.37
2018-07-23T06:33:18.247Z,20.30
2018-07-23T06:35:46.627Z,21.73
2018-07-23T06:38:14.828Z,20.53
2018-07-23T06:40:43.031Z,20.20
2018-07-23T06:43:11.289Z,19.47
2018-07-23T06:45:39.670Z,20.70
2018-07-23T06:48:07.873Z,20.70
2018-07-23T06:50:36.074Z,19.90
2018-07-23T06:53:04.314Z,20.57
2018-07-23T06:55:32.969Z,19.43
2018-07-23T06:58:01.844Z,19.43
2018-07-23T07:00:30.049Z,18.73
2018-07-23T07:02:58.244Z,18.37
2018-07-23T07:05:26.468Z,17.43
2018-07-23T07:07:54.715Z,16.53
2018-07-23T07:10:22.949Z,15.77
2018-07-23T07:12:51.166Z,15.30
2018-07-23T07:15:19.385Z,16.13
2018-07-23T07:17:47.731Z,15.33
2018-07-23T07:20:15.965Z,14.80
2018-07-23T07:22:44.222Z,11.60
2018-07-23T07:25:12.441Z,10.17
2018-07-23T07:27:41.109Z,10.03
2018-07-23T07:30:09.638Z,10.13
2018-07-23T07:32:37.837Z,9.40
2018-07-23T07:35:06.233Z,9.33
2018-07-23T07:37:39.793Z,9.90
2018-07-23T07:40:08.012Z,10.07
2018-07-23T07:42:36.002Z,9.23
2018-07-23T07:45:04.562Z,8.60
2018-07-23T07:47:32.858Z,8.37
2018-07-23T07:50:01.349Z,9.07
2018-07-23T07:52:29.533Z,8.23
2018-07-23T07:54:57.777Z,8.90
2018-07-23T07:57:26.146Z,8.37
2018-07-23T07:59:54.365Z,8.20
2018-07-23T08:02:22.663Z,7.80
2018-07-23T08:04:50.873Z,7.30
2018-07-23T08:07:19.080Z,6.77
2018-07-23T08:09:47.459Z,6.63
2018-07-23T08:12:15.658Z,6.93
2018-07-23T08:14:44.181Z,6.83
2018-07-23T08:17:12.382Z,6.53
2018-07-23T08:19:41.285Z,7.27
2018-07-23T08:22:09.380Z,7.33
2018-07-23T08:24:37.590Z,7.17
2018-07-23T08:27:06.002Z,7.23
2018-07-23T08:29:34.445Z,6.83
2018-07-23T08:32:03.453Z,6.47
2018-07-23T08:34:31.738Z,6.90
2018-07-23T08:36:59.990Z,7.63
2018-07-23T08:39:28.203Z,7.20
2018-07-23T08:41:56.428Z,6.57
2018-07-23T08:44:24.710Z,6.90
2018-07-23T08:46:52.927Z,7.73
2018-07-23T08:49:21.425Z,6.80
2018-07-23T08:51:49.420Z,7.00
2018-07-23T08:54:17.646Z,6.50
2018-07-23T08:56:45.865Z,6.47
2018-07-23T08:59:14.150Z,6.63
2018-07-23T09:01:42.389Z,6.97
2018-07-23T09:04:17.014Z,6.97
2018-07-23T09:06:45.226Z,6.80
2018-07-23T09:09:13.481Z,7.30
2018-07-23T09:11:41.769Z,7.27
2018-07-23T09:14:10.093Z,6.63
2018-07-23T09:16:38.322Z,6.40
2018-07-23T09:19:06.556Z,8.27
2018-07-23T09:21:34.821Z,7.80
2018-07-23T09:24:03.118Z,7.13
2018-07-23T09:26:31.961Z,7.67
2018-07-23T09:29:00.165Z,8.03
2018-07-23T09:31:28.365Z,7.70
2018-07-23T09:33:56.585Z,6.70
2018-07-23T09:36:24.873Z,6.60
2018-07-23T09:38:53.087Z,7.13
2018-07-23T09:41:21.300Z,6.73
2018-07-23T09:43:49.529Z,8.27
2018-07-23T09:46:17.804Z,6.57
2018-07-23T09:48:46.374Z,7.50
2018-07-23T09:51:14.545Z,6.73
2018-07-23T09:53:42.745Z,6.57
2018-07-23T09:56:11.949Z,6.87
2018-07-23T09:58:40.214Z,6.77
2018-07-23T10:01:11.621Z,6.97
2018-07-23T10:03:40.485Z,7.53
2018-07-23T10:06:08.738Z,7.37
2018-07-23T10:08:36.921Z,7.47
2018-07-23T10:11:05.127Z,7.23
2018-07-23T10:13:33.447Z,7.10
2018-07-23T10:16:01.669Z,6.77
2018-07-23T10:18:29.882Z,6.43
2018-07-23T10:20:58.101Z,7.53
2018-07-23T10:23:26.329Z,6.90
2018-07-23T10:25:54.518Z,5.40
2018-07-23T10:28:22.749Z,5.73
2018-07-23T10:30:50.977Z,5.40
2018-07-23T10:33:19.168Z,6.33
2018-07-23T10:35:48.355Z,6.03
2018-07-23T10:38:16.982Z,5.57
2018-07-23T10:41:10.786Z,4.90
2018-07-23T10:43:39.638Z,6.30
2018-07-23T10:46:08.205Z,5.30
2018-07-23T10:48:36.470Z,6.07
2018-07-23T10:51:04.712Z,4.93
2018-07-23T10:53:32.961Z,4.33
2018-07-23T10:56:01.221Z,4.07
2018-07-23T10:58:29.825Z,4.33
2018-07-23T11:00:58.010Z,4.63
2018-07-23T11:03:26.246Z,4.80
2018-07-23T11:05:54.484Z,4.43
2018-07-23T11:08:22.705Z,4.60
2018-07-23T11:10:50.968Z,4.03
2018-07-23T11:13:19.178Z,4.90
2018-07-23T11:15:47.465Z,4.13
2018-07-23T11:18:16.009Z,4.67
2018-07-23T11:20:44.231Z,4.50
2018-07-23T11:23:12.451Z,4.00
2018-07-23T11:25:41.856Z,4.07
2018-07-23T11:28:10.113Z,3.80
2018-07-23T11:30:38.374Z,4.20
2018-07-23T11:33:06.581Z,4.13
2018-07-23T11:35:35.160Z,4.43
2018-07-23T11:38:03.475Z,4.40
2018-07-23T11:40:32.979Z,4.13
2018-07-23T11:43:01.238Z,4.43
2018-07-23T11:45:29.462Z,4.20
2018-07-23T11:47:57.673Z,4.10
2018-07-23T11:50:25.941Z,3.97
2018-07-23T11:52:54.141Z,3.57
2018-07-23T11:55:22.357Z,3.90
2018-07-23T11:57:50.605Z,4.27
2018-07-23T12:00:18.865Z,3.93
2018-07-23T12:02:47.175Z,4.00
2018-07-23T12:05:15.448Z,4.00
2018-07-23T12:07:43.633Z,3.87
2018-07-23T12:10:12.468Z,3.50
2018-07-23T12:12:41.303Z,3.60
2018-07-23T12:15:10.334Z,4.07
2018-07-23T12:17:38.670Z,3.20
2018-07-23T12:20:06.830Z,3.70
2018-07-23T12:22:35.031Z,3.90
2018-07-23T12:25:04.118Z,3.87
2018-07-23T12:27:32.313Z,3.70
2018-07-23T12:30:00.573Z,3.80
2018-07-23T12:32:28.827Z,4.23
2018-07-23T12:34:56.975Z,3.63
2018-07-23T12:37:26.317Z,4.13
2018-07-23T12:39:54.624Z,4.87
2018-07-23T12:42:22.857Z,4.20
2018-07-23T12:44:51.037Z,4.50
2018-07-23T12:47:19.273Z,4.43
2018-07-23T12:49:47.475Z,4.13
2018-07-23T12:52:15.701Z,4.77
2018-07-23T12:54:43.897Z,4.27
2018-07-23T12:57:12.081Z,4.90
2018-07-23T12:59:40.440Z,4.13
2018-07-23T13:02:08.618Z,5.33
2018-07-23T13:04:36.818Z,5.13
2018-07-23T13:07:05.029Z,5.53
2018-07-23T13:09:33.274Z,5.33
2018-07-23T13:12:02.703Z,5.53
2018-07-23T13:14:30.907Z,5.60
2018-07-23T13:16:59.149Z,5.67
2018-07-23T13:19:27.337Z,5.50
2018-07-23T13:21:56.003Z,5.40
2018-07-23T13:24:24.882Z,5.33
2018-07-23T13:26:53.071Z,5.13
2018-07-23T13:29:21.088Z,5.90
2018-07-23T13:31:49.267Z,4.80
2018-07-23T13:34:17.567Z,4.93
2018-07-23T13:36:45.823Z,5.47
2018-07-23T13:39:14.170Z,5.47
2018-07-23T13:41:42.131Z,5.40
2018-07-23T13:44:11.467Z,5.50
2018-07-23T13:46:39.853Z,5.83
2018-07-23T13:49:08.049Z,5.23
2018-07-23T13:51:39.686Z,10.87
2018-07-23T13:54:07.885Z,5.30
2018-07-23T13:56:36.214Z,5.90
2018-07-23T13:59:05.113Z,5.73
2018-07-23T14:01:33.301Z,6.00
2018-07-23T14:04:11.954Z,5.87
2018-07-23T14:06:40.701Z,5.73
2018-07-23T14:09:10.611Z,6.07
2018-07-23T14:11:40.076Z,6.03
2018-07-23T14:14:08.265Z,6.37
2018-07-23T14:16:36.578Z,5.70
2018-07-23T14:19:05.018Z,5.63
2018-07-23T14:21:33.381Z,5.53
2018-07-23T14:24:01.597Z,5.13
2018-07-23T14:26:29.839Z,5.40
2018-07-23T14:28:58.074Z,5.57
2018-07-23T14:31:26.371Z,5.60
2018-07-23T14:33:54.587Z,5.57
2018-07-23T14:36:22.794Z,6.00
2018-07-23T14:38:51.081Z,5.50
2018-07-23T14:41:19.286Z,5.33
2018-07-23T14:43:47.778Z,5.40
2018-07-23T14:46:15.958Z,5.37
2018-07-23T14:48:44.153Z,4.90
2018-07-23T14:51:12.377Z,5.73
2018-07-23T14:53:40.775Z,5.10
2018-07-23T14:56:09.122Z,5.43
2018-07-23T14:58:37.346Z,5.20
2018-07-23T15:01:05.683Z,4.93
2018-07-23T15:03:33.909Z,5.30
2018-07-23T15:06:02.326Z,5.20
2018-07-23T15:08:30.565Z,5.30
2018-07-23T15:10:58.799Z,4.83
2018-07-23T15:13:27.100Z,5.13
2018-07-23T15:15:55.181Z,5.57
2018-07-23T15:18:23.377Z,5.30
2018-07-23T15:20:51.619Z,5.67
2018-07-23T15:23:19.865Z,5.77
2018-07-23T15:25:48.237Z,5.67
2018-07-23T15:28:16.453Z,6.00
2018-07-23T15:30:44.481Z,5.20
2018-07-23T15:33:12.718Z,6.00
2018-07-23T15:35:40.969Z,5.30
2018-07-23T15:38:09.246Z,5.87
2018-07-23T15:40:37.494Z,5.57
2018-07-23T15:43:05.738Z,5.33
2018-07-23T15:45:34.545Z,5.20
2018-07-23T15:48:02.678Z,5.40
2018-07-23T15:50:30.962Z,5.60
2018-07-23T15:52:59.246Z,4.93
2018-07-23T15:55:27.646Z,5.07
2018-07-23T15:57:56.433Z,5.57
2018-07-23T16:00:24.790Z,5.67
2018-07-23T16:02:53.056Z,5.17
2018-07-23T16:05:21.631Z,4.97
2018-07-23T16:07:49.849Z,5.00
2018-07-23T16:10:18.167Z,4.90
2018-07-23T16:12:46.524Z,5.17
2018-07-23T16:15:14.866Z,4.80
2018-07-23T16:17:43.134Z,5.10
2018-07-23T16:20:11.586Z,4.73
2018-07-23T16:22:39.886Z,4.87
2018-07-23T16:25:08.590Z,5.23
2018-07-23T16:27:36.945Z,4.93
2018-07-23T16:30:06.018Z,5.43
2018-07-23T16:32:34.667Z,5.77
2018-07-23T16:35:03.221Z,5.30
2018-07-23T16:37:31.727Z,4.70
2018-07-23T16:40:00.198Z,5.37
2018-07-23T16:42:28.416Z,4.70
2018-07-23T16:44:57.305Z,5.37
2018-07-23T16:47:25.586Z,4.77
2018-07-23T16:49:56.062Z,5.17
2018-07-23T16:52:24.648Z,4.63
2018-07-23T16:54:52.842Z,5.57
2018-07-23T16:57:21.072Z,5.37
2018-07-23T16:59:49.875Z,5.00
2018-07-23T17:02:18.238Z,5.17
2018-07-23T17:04:46.456Z,5.23
2018-07-23T17:07:14.837Z,5.23
2018-07-23T17:09:43.316Z,5.47
2018-07-23T17:12:11.657Z,4.77
2018-07-23T17:14:40.106Z,4.70
2018-07-23T17:17:08.383Z,5.17
2018-07-23T17:19:36.613Z,4.97
2018-07-23T17:22:04.882Z,5.57
2018-07-23T17:24:33.259Z,5.10
2018-07-23T17:27:01.510Z,4.90
2018-07-23T17:29:29.738Z,4.83
2018-07-23T17:31:58.001Z,4.60
2018-07-23T17:34:26.793Z,4.97
2018-07-23T17:36:55.093Z,4.90
2018-07-23T17:39:23.353Z,5.30
2018-07-23T17:41:51.610Z,4.90
2018-07-23T17:44:19.839Z,5.00
2018-07-23T17:46:48.182Z,4.60
2018-07-23T17:49:16.426Z,4.53
2018-07-23T17:51:44.619Z,4.87
2018-07-23T17:54:12.810Z,5.10
2018-07-23T17:56:41.099Z,5.00
2018-07-23T17:59:09.443Z,4.60
2018-07-23T18:01:37.762Z,4.87
2018-07-23T18:04:05.960Z,4.43
2018-07-23T18:06:34.372Z,4.80
2018-07-23T18:09:02.738Z,4.67
2018-07-23T18:11:30.941Z,4.63
2018-07-23T18:13:59.248Z,5.73
2018-07-23T18:16:27.456Z,6.07
2018-07-23T18:18:55.770Z,5.10
2018-07-23T18:21:24.351Z,4.63
2018-07-23T18:23:52.566Z,4.90
2018-07-23T18:26:20.825Z,5.10
2018-07-23T18:28:49.159Z,5.03
2018-07-23T18:31:17.494Z,4.90
2018-07-23T18:33:45.705Z,5.03
2018-07-23T18:36:13.941Z,4.87
2018-07-23T18:38:42.421Z,4.77
2018-07-23T18:41:10.628Z,4.60
2018-07-23T18:43:38.832Z,4.97
2018-07-23T18:46:07.121Z,5.27
2018-07-23T18:49:45.181Z,5.00
2018-07-23T18:52:13.952Z,4.37
2018-07-23T18:54:43.248Z,5.07
2018-07-23T18:57:11.598Z,4.70
2018-07-23T18:59:39.969Z,5.10
2018-07-23T19:02:09.480Z,5.50
2018-07-23T19:04:38.069Z,5.30
2018-07-23T19:07:06.997Z,5.50
2018-07-23T19:09:35.568Z,5.20
2018-07-23T19:12:04.265Z,5.05
2018-07-23T19:14:33.266Z,5.00
2018-07-23T19:17:02.841Z,5.20
2018-07-23T19:19:31.242Z,4.93
2018-07-23T19:22:00.180Z,4.87
2018-07-23T19:24:28.489Z,5.00
2018-07-23T19:26:56.836Z,5.30
2018-07-23T19:29:25.149Z,4.97
2018-07-23T19:31:53.926Z,5.37
2018-07-23T19:34:22.144Z,5.27
2018-07-23T19:36:50.399Z,5.07
2018-07-23T19:39:19.837Z,4.90
2018-07-23T19:41:48.109Z,5.17
2018-07-23T19:44:16.428Z,5.87
2018-07-23T19:46:44.733Z,5.80
2018-07-23T19:49:12.964Z,5.90
2018-07-23T19:51:41.393Z,5.43
2018-07-23T19:54:10.039Z,5.70
2018-07-23T19:56:38.256Z,5.30
2018-07-23T19:59:06.684Z,5.37
2018-07-23T20:01:35.077Z,5.20
2018-07-23T20:04:03.289Z,5.63
2018-07-23T20:06:32.279Z,5.30
2018-07-23T20:09:01.857Z,5.63
2018-07-23T20:11:31.110Z,5.97
2018-07-23T20:13:59.572Z,4.57
2018-07-23T20:16:27.756Z,5.40
2018-07-23T20:18:56.402Z,6.20
2018-07-23T20:21:24.660Z,6.10
2018-07-23T20:23:52.897Z,6.17
2018-07-23T20:26:21.237Z,6.37
2018-07-23T20:28:50.318Z,7.00
2018-07-23T20:31:18.706Z,6.27
2018-07-23T20:33:47.108Z,7.33
2018-07-23T20:36:15.390Z,7.33
2018-07-23T20:38:43.680Z,7.60
2018-07-23T20:41:12.058Z,7.53
2018-07-23T20:43:40.345Z,7.47
2018-07-23T20:46:08.578Z,7.30
2018-07-23T20:48:36.829Z,6.83
2018-07-23T20:51:05.057Z,7.67
2018-07-23T20:53:33.301Z,7.63
2018-07-23T20:56:01.509Z,7.10
2018-07-23T20:58:29.473Z,6.53
2018-07-23T21:00:58.205Z,7.70
2018-07-23T21:03:26.995Z,7.33
2018-07-23T21:05:55.417Z,7.80
2018-07-23T21:08:23.628Z,8.23
2018-07-23T21:10:52.402Z,7.80
2018-07-23T21:13:20.634Z,7.63
2018-07-23T21:15:48.939Z,8.07
2018-07-23T21:18:18.042Z,8.53
2018-07-23T21:20:46.274Z,7.97
2018-07-23T21:23:14.501Z,8.20
2018-07-23T21:25:42.701Z,7.67
2018-07-23T21:28:11.177Z,8.77
2018-07-23T21:30:39.401Z,8.83
2018-07-23T21:33:07.638Z,7.97
2018-07-23T21:35:35.814Z,8.77
2018-07-23T21:38:04.117Z,8.27
2018-07-23T21:40:32.385Z,8.30
2018-07-23T21:43:00.673Z,8.20
2018-07-23T21:45:29.112Z,7.57
2018-07-23T21:47:57.322Z,8.13
2018-07-23T21:50:25.777Z,8.63
2018-07-23T21:52:54.001Z,8.73
2018-07-23T21:55:22.313Z,9.40
2018-07-23T21:57:50.657Z,9.10
2018-07-23T22:00:19.657Z,10.23
2018-07-23T22:02:48.493Z,10.27
2018-07-23T22:05:16.761Z,9.60
2018-07-23T22:07:45.053Z,9.37
2018-07-23T22:10:13.325Z,9.70
2018-07-23T22:12:41.677Z,9.90
2018-07-23T22:15:11.208Z,9.03
2018-07-23T22:17:39.634Z,10.47
2018-07-23T22:20:08.696Z,9.50
2018-07-23T22:22:36.893Z,9.37
2018-07-23T22:25:05.244Z,9.63
2018-07-23T22:27:33.546Z,10.97
2018-07-23T22:30:01.889Z,10.23
2018-07-23T22:32:30.066Z,10.30
2018-07-23T22:34:58.432Z,10.10
2018-07-23T22:37:27.001Z,10.97
2018-07-23T22:39:55.885Z,10.93
2018-07-23T22:42:24.327Z,11.23
2018-07-23T22:44:52.524Z,11.07
2018-07-23T22:47:20.834Z,10.83
2018-07-23T22:49:49.244Z,10.43
2018-07-23T22:52:17.565Z,11.27
2018-07-23T22:54:45.833Z,11.50
2018-07-23T22:57:14.056Z,11.27
2018-07-23T22:59:42.497Z,10.77
2018-07-23T23:02:10.874Z,12.20
2018-07-23T23:04:39.224Z,10.30
2018-07-23T23:07:07.526Z,10.17
2018-07-23T23:09:35.780Z,11.33
2018-07-23T23:12:04.641Z,11.33
2018-07-23T23:14:32.970Z,11.50
2018-07-23T23:17:01.320Z,12.10
2018-07-23T23:19:29.793Z,11.47
2018-07-23T23:21:58.038Z,12.03
2018-07-23T23:24:26.527Z,12.23
2018-07-23T23:26:55.877Z,11.23
2018-07-23T23:29:24.179Z,11.47
2018-07-23T23:31:52.394Z,11.53
2018-07-23T23:34:20.620Z,11.73
2018-07-23T23:36:49.503Z,11.67
2018-07-23T23:39:17.866Z,11.70
2018-07-23T23:41:46.085Z,10.73
2018-07-23T23:44:14.349Z,11.47
2018-07-23T23:46:42.946Z,11.20
2018-07-23T23:49:11.726Z,11.57
2018-07-23T23:51:40.008Z,11.80
2018-07-23T23:54:08.214Z,11.63
2018-07-23T23:56:36.546Z,12.73
2018-07-23T23:59:05.018Z,12.80
